Fullerton, California
Current Conditions -  °F | °C
As of 2:53 PM on Wednesday 26 Nov 2014 (Local Time) from KFUL Reporting Station
Clear Clear  
Wind Chill: 89°   Ceiling: Unl
Heat Index: 89°   Visibility: 10mi
Dew Point: 13°   Wind: 5mph
Humidity: 6%   Direction: 300°WNW
Pressure: 30.11"   Gusts: NA
Location:  33.87°N, 117.92°W
Report Text: KFUL 262253Z 30004KT 10SM CLR 32/M11 A3011 RMK AO2 SLP194 T03171106
Loading
Personal Weather Stations






























Interactive Weather Map New forecast layout! Learn more

10-Day Weather Forecast

Advertisements
Track Severe Weather on mobile